地図

経路データ

SID SEASON NUMBER BASIN SUBBASIN NAME ISO_TIME NATURE LAT LON WMO_WIND WMO_PRES WMO_AGENCY TRACK_TYPE DIST2LAND LANDFALL IFLAG USA_AGENCY USA_ATCF_ID USA_LAT USA_LON USA_RECORD USA_STATUS USA_WIND USA_PRES USA_SSHS USA_R34_NE USA_R34_SE USA_R34_SW USA_R34_NW USA_R50_NE USA_R50_SE USA_R50_SW USA_R50_NW USA_R64_NE USA_R64_SE USA_R64_SW USA_R64_NW USA_POCI USA_ROCI USA_RMW USA_EYE TOKYO_LAT TOKYO_LON TOKYO_GRADE TOKYO_WIND TOKYO_PRES TOKYO_R50_DIR TOKYO_R50_LONG TOKYO_R50_SHORT TOKYO_R30_DIR TOKYO_R30_LONG TOKYO_R30_SHORT TOKYO_LAND CMA_LAT CMA_LON CMA_CAT CMA_WIND CMA_PRES HKO_LAT HKO_LON HKO_CAT HKO_WIND HKO_PRES NEWDELHI_LAT NEWDELHI_LON NEWDELHI_GRADE NEWDELHI_WIND NEWDELHI_PRES NEWDELHI_CI NEWDELHI_DP NEWDELHI_POCI REUNION_LAT REUNION_LON REUNION_TYPE REUNION_WIND REUNION_PRES REUNION_TNUM REUNION_CI REUNION_RMW REUNION_R34_NE REUNION_R34_SE REUNION_R34_SW REUNION_R34_NW REUNION_R50_NE REUNION_R50_SE REUNION_R50_SW REUNION_R50_NW REUNION_R64_NE REUNION_R64_SE REUNION_R64_SW REUNION_R64_NW BOM_LAT BOM_LON BOM_TYPE BOM_WIND BOM_PRES BOM_TNUM BOM_CI BOM_RMW BOM_R34_NE BOM_R34_SE BOM_R34_SW BOM_R34_NW BOM_R50_NE BOM_R50_SE BOM_R50_SW BOM_R50_NW BOM_R64_NE BOM_R64_SE BOM_R64_SW BOM_R64_NW BOM_ROCI BOM_POCI BOM_EYE BOM_POS_METHOD BOM_PRES_METHOD NADI_LAT NADI_LON NADI_CAT NADI_WIND NADI_PRES WELLINGTON_LAT WELLINGTON_LON WELLINGTON_WIND WELLINGTON_PRES DS824_LAT DS824_LON DS824_STAGE DS824_WIND DS824_PRES TD9636_LAT TD9636_LON TD9636_STAGE TD9636_WIND TD9636_PRES TD9635_LAT TD9635_LON TD9635_WIND TD9635_PRES TD9635_ROCI NEUMANN_LAT NEUMANN_LON NEUMANN_CLASS NEUMANN_WIND NEUMANN_PRES MLC_LAT MLC_LON MLC_CLASS MLC_WIND MLC_PRES USA_GUST BOM_GUST BOM_GUST_PER REUNION_GUST REUNION_GUST_PER USA_SEAHGT USA_SEARAD_NE USA_SEARAD_SE USA_SEARAD_SW USA_SEARAD_NW STORM_SPEED STORM_DIR
1954185N07145 1954 25 WP MM FLOSSIE 1954-07-04 00:00:00 TS 7.30000 144.800 main 1072 1072 O________OOO__ jtwc_wp WP031954 7.30000 144.800 15 -1 7.30000 144.800 TC 15 7.30000 144.800 1 15 7.30000 144.800 15 1005 60 8 270
1954185N07145 1954 25 WP MM FLOSSIE 1954-07-04 03:00:00 TS 7.30083 144.398 main 1081 1081 P________PPP__ WP031954 7.30262 144.383 15 -1 7.30262 144.383 TC 15 7.29545 144.445 1 15 7.30262 144.383 15 1005 60 8 270
1954185N07145 1954 25 WP MM FLOSSIE 1954-07-04 06:00:00 TS 7.29815 144.021 main 1092 1092 O________OPO__ jtwc_wp WP031954 7.30000 144.000 15 -1 7.30000 144.000 TC 15 7.29262 144.083 1 15 7.30000 144.000 15 1005 60 7 269
1954185N07145 1954 25 WP MM FLOSSIE 1954-07-04 09:00:00 TS 7.29267 143.675 main 1101 1101 P________PPP__ WP031954 7.29240 143.665 15 -1 7.29240 143.665 TC 15 7.29349 143.703 1 15 7.29240 143.665 15 1004 60 7 270
1954185N07145 1954 25 WP MM FLOSSIE 1954-07-04 12:00:00 TS 7.30000 143.300 main 1115 1115 O________OOO__ jtwc_wp WP031954 7.30000 143.300 15 -1 7.30000 143.300 TC 15 7.30000 143.300 1 15 7.30000 143.300 15 1004 60 8 273
1954185N07145 1954 25 WP MM FLOSSIE 1954-07-04 15:00:00 TS 7.33575 142.822 main 1116 1109 P________PPP__ WP031954 7.34256 142.808 15 -1 7.34256 142.808 TC 15 7.31531 142.867 1 15 7.34256 142.808 15 1004 60 10 275
1954185N07145 1954 25 WP MM FLOSSIE 1954-07-04 18:00:00 TS 7.38687 142.329 main 1105 1089 O________OPO__ jtwc_wp WP031954 7.40000 142.300 15 -1 7.40000 142.300 TC 15 7.34749 142.415 1 15 7.40000 142.300 15 1004 60 9 276
1954185N07145 1954 25 WP MM FLOSSIE 1954-07-04 21:00:00 TS 7.43330 141.902 main 1089 1083 P________PPP__ WP031954 7.44242 141.885 15 -1 7.44242 141.885 TC 15 7.40592 141.955 1 15 7.44242 141.885 15 1004 60 8 278
1954185N07145 1954 25 WP MM FLOSSIE 1954-07-05 00:00:00 TS 7.50000 141.500 main 1083 1076 O________OOO__ jtwc_wp WP031954 7.50000 141.500 15 -1 7.50000 141.500 TC 15 7.50000 141.500 1 15 7.50000 141.500 15 1004 60 8 281
1954185N07145 1954 25 WP MM FLOSSIE 1954-07-05 03:00:00 TS 7.58619 141.093 main 1080 1073 P________PPP__ WP031954 7.56994 141.107 15 -1 7.56994 141.107 TC 15 7.63495 141.052 1 15 7.56994 141.107 15 1004 60 8 286
1954185N07145 1954 25 WP MM FLOSSIE 1954-07-05 06:00:00 TS 7.72624 140.678 main 1078 1075 O________OPO__ jtwc_wp WP031954 7.70000 140.700 15 -1 7.70000 140.700 TC 15 7.80495 140.613 1 15 7.70000 140.700 15 1004 60 9 293
1954185N07145 1954 25 WP MM FLOSSIE 1954-07-05 09:00:00 TS 7.94501 140.230 main 1085 1085 P________PPP__ WP031954 7.92752 140.243 15 -1 7.92752 140.243 TC 15 7.99748 140.192 1 15 7.92752 140.243 15 1003 60 5 310
1954185N07145 1954 25 WP MM FLOSSIE 1954-07-05 12:00:00 TS 8.06667 140.267 1006 tokyo main 1110 1105 OOO______OOO__ jtwc_wp WP031954 8.20000 139.800 15 -1 7.00000 144.000 2 1006 0 0 0 7.00000 144.000 0 1006 8.20000 139.800 TC 15 8.20000 139.800 1 15 8.20000 139.800 15 1003 60 4 326
1954185N07145 1954 25 WP MM FLOSSIE 1954-07-05 15:00:00 TS 8.25623 140.016 main 1116 1112 PPP______PPP__ WP031954 8.46494 139.427 17 -1 7.52164 142.391 2 1006 0 0 7.54682 142.364 0 1006 8.46494 139.427 TC 17 8.35211 139.422 1 16 8.46494 139.427 16 1003 60 8 302
1954185N07145 1954 25 WP MM FLOSSIE 1954-07-05 18:00:00 TS 8.47590 139.614 1006 tokyo main 1120 1115 OOO______OPO__ jtwc_wp WP031954 8.70000 139.100 20 -1 8.00000 141.000 2 1006 0 0 0 8.00000 141.000 0 1006 8.70000 139.100 TC 20 8.51744 139.075 1 17 8.70000 139.100 18 1003 60 9 296
1954185N07145 1954 25 WP MM FLOSSIE 1954-07-05 21:00:00 TS 8.65579 139.194 main 1125 1118 PPP______PPP__ WP031954 8.82749 138.777 20 -1 8.41421 139.980 2 1006 0 0 8.31405 140.087 0 1006 8.82749 138.777 TC 20 8.72404 138.765 1 18 8.82749 138.777 19 1003 90 9 297
1954185N07145 1954 25 WP MM FLOSSIE 1954-07-06 00:00:00 TS 8.90000 138.767 1006 tokyo main 1132 1129 OOO______OOO__ jtwc_wp WP031954 9.00000 138.500 20 -1 8.80000 139.200 2 1006 0 0 0 8.60000 139.400 0 1006 9.00000 138.500 TC 20 9.00000 138.500 1 20 9.00000 138.500 20 1003 120 10 306
1954185N07145 1954 25 WP MM FLOSSIE 1954-07-06 03:00:00 TS 9.25990 138.342 main 1159 1159 PPP______PPP__ WP031954 9.34748 138.277 20 -1 9.19253 138.380 2 1003 0 0 8.96270 138.553 0 1003 9.34748 138.277 TC 20 9.36173 138.290 1 20 9.34748 138.277 20 1002 120 11 317
1954185N07145 1954 25 WP MM FLOSSIE 1954-07-06 06:00:00 TS 9.69914 138.020 1000 tokyo main 1195 1195 OOO______OPO__ jtwc_wp WP031954 9.80000 138.100 20 -1 9.60000 137.800 2 1000 0 0 0 9.40000 137.900 1 29 1000 9.80000 138.100 TC 20 9.79483 138.120 1 20 9.80000 138.100 20 1001 120 11 331
1954185N07145 1954 25 WP MM FLOSSIE 1954-07-06 09:00:00 TS 10.1804 137.834 main 1245 1245 PPP______PPP__ WP031954 10.2850 137.928 20 -1 10.0272 137.610 2 1000 0 0 9.91972 137.645 1 33 1000 10.2850 137.928 TC 20 10.2805 137.965 1 20 10.2850 137.928 20 1000 150 10 344
1954185N07145 1954 25 WP MM FLOSSIE 1954-07-06 12:00:00 TS 10.7000 137.733 1000 tokyo main 1264 1264 OOO______OOO__ jtwc_wp WP031954 10.8000 137.800 20 -1 10.5000 137.600 2 1000 0 0 0 10.5000 137.600 2 38 1000 10.8000 137.800 TC 20 10.8000 137.800 1 20 10.8000 137.800 20 999 180 11 352
1954185N07145 1954 25 WP MM FLOSSIE 1954-07-06 15:00:00 TS 11.2196 137.692 main 1277 1274 PPP______PPP__ WP031954 11.2849 137.787 32 -1 11.0124 137.552 2 999 0 0 11.0849 137.580 2 43 999 11.2849 137.787 TC 32 11.3653 137.662 1 30 11.2849 137.787 32 998 210 11 352
1954185N07145 1954 25 WP MM FLOSSIE 1954-07-06 18:00:00 TS 11.7752 137.583 998 tokyo main 1280 1261 OOO______OPO__ jtwc_wp WP031954 11.8000 137.700 45 0 11.6000 137.400 2 998 0 0 0 11.7000 137.500 3 48 998 11.8000 137.700 TC 45 11.9514 137.499 1 40 11.8000 137.700 45 997 240 13 341
1954185N07145 1954 25 WP MM FLOSSIE 1954-07-06 21:00:00 TS 12.4286 137.273 main 1262 1217 PPP______PPP__ WP031954 12.4374 137.383 52 0 12.3451 136.996 2 994 0 0 12.4024 137.233 3 53 994 12.4374 137.383 TC 52 12.5118 137.262 1 50 12.4374 137.383 52 994 240 14 329
1954185N07145 1954 25 WP MM FLOSSIE 1954-07-07 00:00:00 TS 13.0000 136.817 990 tokyo main 1217 1170 OOO______OOO__ jtwc_wp WP031954 13.0000 136.900 60 0 13.0000 136.500 9 990 0 0 0 13.0000 136.800 3 58 991 13.0000 136.900 TC 60 13.0000 136.900 2 60 13.0000 136.900 60 992 240 13 312
1954185N07145 1954 25 WP MM FLOSSIE 1954-07-07 03:00:00 TS 13.2982 136.297 main 1170 1112 PPP______PPP__ WP031954 13.2949 136.352 67 1 13.2946 136.137 9 987 0 0 13.2875 136.244 3 63 989 13.2949 136.352 TC 67 13.3224 136.345 2 63 13.2949 136.352 67 990 270 12 295
1954185N07145 1954 25 WP MM FLOSSIE 1954-07-07 06:00:00 TS 13.5123 135.678 985 tokyo main 1112 1045 OOO______OPO__ jtwc_wp WP031954 13.5000 135.700 75 1 13.5000 135.700 9 985 0 0 0 13.5000 135.600 4 68 988 13.5000 135.700 TC 75 13.5737 135.668 2 67 13.5000 135.700 75 988 300 14 292
1954185N07145 1954 25 WP MM FLOSSIE 1954-07-07 09:00:00 TS 13.8205 134.967 main 1045 976 PPP______PPP__ WP031954 13.7850 134.965 75 1 13.8778 135.030 9 985 0 0 13.8775 134.943 4 72 986 13.7850 134.965 TC 75 13.8129 134.932 2 71 13.7850 134.965 75 987 330 16 295
1954185N07145 1954 25 WP MM FLOSSIE 1954-07-07 12:00:00 TS 14.1667 134.233 985 tokyo main 968 913 OOO______OOO__ jtwc_wp WP031954 14.1000 134.200 75 1 14.3000 134.300 9 985 0 0 0 14.3000 134.300 4 77 985 14.1000 134.200 TC 75 14.1000 134.200 3 75 14.1000 134.200 75 986 360 15 297
1954185N07145 1954 25 WP MM FLOSSIE 1954-07-07 15:00:00 TS 14.5169 133.563 main 913 865 PPP______PPP__ WP031954 14.4049 133.470 75 1 14.6771 133.699 9 985 0 0 14.6921 133.750 4 77 985 14.4049 133.470 TC 75 14.5175 133.521 3 75 14.4049 133.470 75 985 330 15 301
1954185N07145 1954 25 WP MM FLOSSIE 1954-07-07 18:00:00 TS 14.9317 132.927 985 tokyo main 855 817 OOO______OPO__ jtwc_wp WP031954 14.8000 132.800 75 1 15.1000 133.100 9 985 0 0 0 15.1000 133.200 4 77 985 14.8000 132.800 TC 75 14.9902 132.861 3 75 14.8000 132.800 75 984 300 16 308
1954185N07145 1954 25 WP MM FLOSSIE 1954-07-07 21:00:00 TS 15.4733 132.296 main 822 796 PPP______PPP__ WP031954 15.3774 132.198 75 1 15.6652 132.386 9 987 0 0 15.5501 132.550 4 72 987 15.3774 132.198 TC 75 15.4927 132.246 3 75 15.3774 132.198 75 983 270 16 314
1954185N07145 1954 25 WP MM FLOSSIE 1954-07-08 00:00:00 TS 16.0333 131.733 990 tokyo main 792 782 OOO______OOO__ jtwc_wp WP031954 16.0000 131.700 75 1 16.2000 131.700 9 990 0 0 0 16.0000 131.900 4 68 990 16.0000 131.700 TC 75 16.0000 131.700 4 75 16.0000 131.700 75 982 240 14 317
1954185N07145 1954 25 WP MM FLOSSIE 1954-07-08 03:00:00 TS 16.4969 131.296 main 788 773 PPP______PPP__ WP031954 16.5222 131.327 75 1 16.5221 131.169 9 992 0 0 16.4073 131.327 4 63 992 16.5222 131.327 TC 75 16.4855 131.296 4 73 16.5222 131.327 75 983 240 12 319
1954185N07145 1954 25 WP MM FLOSSIE 1954-07-08 06:00:00 TS 16.9283 130.909 995 tokyo main 773 756 OOO______OPO__ jtwc_wp WP031954 17.0000 131.000 75 1 16.8000 130.700 9 995 0 0 0 16.8000 130.800 3 58 995 17.0000 131.000 TC 75 16.9701 130.955 4 72 17.0000 131.000 75 985 240 12 318
1954185N07145 1954 25 WP MM FLOSSIE 1954-07-08 09:00:00 TS 17.3619 130.493 main 761 743 PPP______PPP__ WP031954 17.4574 130.622 72 1 17.1699 130.192 9 995 0 0 17.1849 130.285 3 58 995 17.4574 130.622 TC 72 17.4447 130.611 4 71 17.4574 130.622 72 987 210 12 317
1954185N07145 1954 25 WP MM FLOSSIE 1954-07-08 12:00:00 TS 17.8000 130.050 995 tokyo main 749 735 OOO______OOO__ jtwc_wp WP031954 17.9000 130.200 70 1 17.6000 129.700 9 995 0 0 0 17.6000 129.800 3 58 995 17.9000 130.200 TC 70 17.9000 130.200 4 70 17.9000 130.200 70 990 180 13 316
1954185N07145 1954 25 WP MM FLOSSIE 1954-07-08 15:00:00 TS 18.2678 129.588 main 742 717 PPP______PPP__ WP031954 18.3645 129.760 67 1 18.0997 129.257 9 995 0 0 18.0997 129.365 3 58 995 18.3645 129.760 TC 67 18.3139 129.629 4 65 18.3645 129.760 67 992 180 13 314
1954185N07145 1954 25 WP MM FLOSSIE 1954-07-08 18:00:00 TS 18.7180 129.047 995 tokyo main 707 647 OOO______OPO__ jtwc_wp WP031954 18.8000 129.200 65 1 18.6000 128.800 9 995 0 0 0 18.6000 128.900 3 58 995 18.8000 129.200 TC 65 18.7081 128.982 4 60 18.8000 129.200 65 995 180 14 306
1954185N07145 1954 25 WP MM FLOSSIE 1954-07-08 21:00:00 TS 19.1037 128.390 main 647 578 PPP______PPP__ WP031954 19.1649 128.460 57 0 19.0145 128.309 9 995 0 0 19.0146 128.359 3 53 996 19.1649 128.460 TC 57 19.0981 128.294 4 55 19.1649 128.460 57 996 180 15 299
1954185N07145 1954 25 WP MM FLOSSIE 1954-07-09 00:00:00 TS 19.4667 127.633 995 tokyo main 570 498 OOO______OOO__ jtwc_wp WP031954 19.5000 127.600 50 0 19.4000 127.700 9 995 0 0 0 19.4000 127.700 3 48 998 19.5000 127.600 TC 50 19.5000 127.600 2 50 19.5000 127.600 50 998 180 17 295
1954185N07145 1954 25 WP MM FLOSSIE 1954-07-09 03:00:00 TS 19.8225 126.735 main 488 432 PPP______PPP__ WP031954 19.8207 126.640 42 0 19.7859 126.828 9 995 0 0 19.7784 126.820 3 43 999 19.8207 126.640 TC 42 19.9084 126.842 2 46 19.8207 126.640 42 999 180 18 295
1954185N07145 1954 25 WP MM FLOSSIE 1954-07-09 06:00:00 TS 20.2224 125.917 995 tokyo main 428 407 OOO______OPO__ jtwc_wp WP031954 20.2000 125.800 35 0 20.2000 126.000 9 995 0 0 0 20.2000 126.000 2 38 1000 20.2000 125.800 TC 35 20.3344 126.100 2 42 20.2000 125.800 35 1000 180 16 305
1954185N07145 1954 25 WP MM FLOSSIE 1954-07-09 09:00:00 TS 20.7158 125.371 main 414 406 PPP______PPP__ WP031954 20.7119 125.280 35 0 20.6470 125.465 9 997 0 0 20.7195 125.465 2 38 1000 20.7119 125.280 TC 35 20.7929 125.458 2 38 20.7119 125.280 35 1000 210 13 323
1954185N07145 1954 25 WP MM FLOSSIE 1954-07-09 12:00:00 TS 21.2833 125.067 1000 tokyo main 430 383 OOO______OOO__ jtwc_wp WP031954 21.3000 125.000 35 0 21.2000 125.200 9 1000 0 0 0 21.3000 125.200 2 38 1000 21.3000 125.000 TC 35 21.3000 125.000 2 35 21.3000 125.000 35 1000 240 12 340
1954185N07145 1954 25 WP MM FLOSSIE 1954-07-09 15:00:00 TS 21.8864 124.924 main 383 367 PPP______PPP__ WP031954 21.8848 124.817 32 -1 21.9273 125.152 9 1000 0 0 21.8698 125.152 2 38 1000 21.8848 124.817 TC 32 21.8671 124.786 2 32 21.8848 124.817 32 1000 240 13 356
1954185N07145 1954 25 WP MM FLOSSIE 1954-07-09 18:00:00 TS 22.5327 124.971 1000 tokyo main 374 357 OOO______OPO__ jtwc_wp WP031954 22.5000 124.800 30 -1 22.7000 125.300 9 1000 0 0 0 22.5000 125.300 2 38 1000 22.5000 124.800 TC 30 22.4838 124.776 2 30 22.5000 124.800 30 1001 240 13 7
1954185N07145 1954 25 WP MM FLOSSIE 1954-07-09 21:00:00 TS 23.1744 125.107 main 356 351 PPP______PPP__ WP031954 23.1647 124.860 27 -1 23.2377 125.528 9 1000 0 0 23.1602 125.528 2 33 1000 23.1647 124.860 TC 27 23.1337 124.903 2 27 23.1647 124.860 27 1001 210 14 17
1954185N07145 1954 25 WP MM FLOSSIE 1954-07-10 00:00:00 TS 23.8889 125.411 1000 tokyo main 361 358 OOO______OOO__ jtwc_wp WP031954 23.8000 125.100 25 -1 24.0000 125.800 9 1000 0 0 0 24.0000 125.800 1 29 1000 23.8000 125.100 TC 25 23.8000 125.100 1 25 23.8000 125.100 25 1001 180 19 19
1954185N07145 1954 25 WP MM FLOSSIE 1954-07-10 03:00:00 TS 24.9247 125.780 main 382 382 PPP______P_P__ WP031954 24.3331 125.542 25 -1 25.5072 125.963 9 1000 0 0 25.2296 125.956 1 1000 24.3331 125.542 TC 25 1 24.3331 125.542 25 1001 150 24 17
1954185N07145 1954 25 WP MM FLOSSIE 1954-07-10 06:00:00 TS 26.1818 126.173 1000 tokyo main 441 441 OOO______O_O__ jtwc_wp WP031954 24.8000 126.100 25 -1 27.0000 126.200 2 1000 0 0 0 26.4000 126.200 0 1000 24.8000 126.100 TC 25 1 24.8000 126.100 25 1002 120 26 17
1954185N07145 1954 25 WP MM FLOSSIE 1954-07-10 09:00:00 TS 27.4283 126.639 main 492 477 _PP___________ WP031954 -1 27.7641 126.596 2 1000 0 0 27.0924 126.682 0 1000 TC 1 19 30
1954185N07145 1954 25 WP MM FLOSSIE 1954-07-10 12:00:00 TS 27.8500 127.250 1000 tokyo main 462 401 _OO___________ -1 28.2000 127.200 2 1000 0 0 0 27.5000 127.300 0 1000 14 55
1954185N07145 1954 25 WP MM FLOSSIE 1954-07-10 15:00:00 TS 28.2228 127.932 main 401 334 _PP___________ -1 28.6672 128.010 2 1000 0 0 27.7784 127.854 0 1000 15 65
1954185N07145 1954 25 WP MM FLOSSIE 1954-07-10 18:00:00 TS 28.5000 128.800 1000 tokyo main 330 270 _OO___________ -1 29.0000 129.000 2 1000 0 0 0 28.0000 128.600 0 1000 18 73
1954185N07145 1954 25 WP MM FLOSSIE 1954-07-10 21:00:00 TS 28.7552 129.886 main 257 224 _PP___________ -1 29.1918 130.080 2 1001 0 0 28.3186 129.692 0 1001 21 76
1954185N07145 1954 25 WP MM FLOSSIE 1954-07-11 00:00:00 TS 29.0000 131.100 1002 tokyo main 226 _OO___________ -1 29.3000 131.200 2 1002 0 0 0 28.7000 131.000 0 1002 22 77

デジタル台風データ・検索

IBTrACS Databaseについて

本データベースは、米国NOAAが公開する1842年以降の世界の熱帯低気圧のベストトラックデータアーカイブInternational Best Track Archive for Climate Stewardship (IBTrACS)を、ウェブで閲覧しやすい形式に変換したものです。

最終更新日:2021-12-03